Time;durP1;ratioP1;P1;durP2;ratioP2;P2;SDS_P1;SDS_P2;PMS_P1;PMS_P2;Temp;Humidity;BMP_temperature;BMP_pressure;BME280_temperature;BME280_humidity;BME280_pressure;Samples;Min_cycle;Max_cycle;Signal;HPM_P1;HPM_P2
2021/09/12 00:02:23;;;;;;;1.35;1.08;;;23.30;99.90;;;;;;20696604;23;20235;-68
2021/09/12 00:12:26;;;;;;;1.23;0.75;;;23.30;99.90;;;;;;20622803;28;20223;-69
2021/09/12 00:22:31;;;;;;;1.65;0.38;;;23.30;99.90;;;;;;20657052;28;20187;-68
2021/09/12 00:32:35;;;;;;;1.87;1.30;;;23.20;99.90;;;;;;20701019;28;20215;-68
2021/09/12 00:42:40;;;;;;;0.57;0.55;;;23.20;99.90;;;;;;20701042;28;20360;-68
2021/09/12 00:52:46;;;;;;;1.83;1.10;;;23.20;99.90;;;;;;20700019;28;20238;-68
2021/09/12 01:02:52;;;;;;;1.20;0.85;;;23.10;99.90;;;;;;20700543;28;20230;-67
2021/09/12 01:12:56;;;;;;;0.63;0.63;;;23.00;99.90;;;;;;20698014;28;20281;-67
2021/09/12 01:23:06;;;;;;;5.03;1.77;;;22.90;99.90;;;;;;20658838;28;20203;-67
2021/09/12 01:33:11;;;;;;;2.75;1.80;;;23.10;99.90;;;;;;20616970;28;20568;-68
2021/09/12 01:43:14;;;;;;;0.90;0.80;;;23.00;99.90;;;;;;20617850;28;20203;-68
2021/09/12 01:53:20;;;;;;;2.65;1.58;;;22.90;99.90;;;;;;20628361;28;20585;-67
2021/09/12 02:03:24;;;;;;;1.55;0.70;;;22.90;99.90;;;;;;20705239;23;20237;-71
2021/09/12 02:13:29;;;;;;;1.98;1.30;;;22.90;99.90;;;;;;20794288;28;20269;-70
2021/09/12 02:23:33;;;;;;;0.47;0.47;;;22.70;99.90;;;;;;20792498;28;20251;-72
2021/09/12 02:33:38;;;;;;;3.80;1.67;;;22.40;99.90;;;;;;20794047;28;20234;-71
2021/09/12 02:43:41;;;;;;;8.57;1.47;;;22.20;99.90;;;;;;20788439;28;20202;-70
2021/09/12 02:53:47;;;;;;;2.17;1.17;;;22.00;99.90;;;;;;20791133;28;21170;-70
2021/09/12 03:03:50;;;;;;;4.57;1.30;;;22.00;99.90;;;;;;20763244;22;20593;-68
2021/09/12 03:13:55;;;;;;;0.80;0.50;;;21.90;99.90;;;;;;20700630;28;20578;-68
2021/09/12 03:23:59;;;;;;;12.43;0.97;;;22.00;99.90;;;;;;20706858;28;20191;-69
2021/09/12 03:34:04;;;;;;;0.93;0.90;;;21.70;99.90;;;;;;20707840;28;20218;-68
2021/09/12 03:44:08;;;;;;;0.20;0.03;;;21.70;99.90;;;;;;20685454;28;20249;-67
2021/09/12 03:54:12;;;;;;;2.40;0.60;;;21.90;99.90;;;;;;20704247;28;20231;-68
2021/09/12 04:04:16;;;;;;;0.63;0.63;;;22.00;99.90;;;;;;20701963;28;20231;-69
2021/09/12 04:14:21;;;;;;;0.90;0.70;;;22.10;99.90;;;;;;20700810;28;20223;-67
2021/09/12 04:24:25;;;;;;;1.27;0.98;;;22.30;99.90;;;;;;20650614;28;20199;-68
2021/09/12 04:34:30;;;;;;;1.58;1.15;;;22.50;99.90;;;;;;20619308;28;20775;-68
2021/09/12 04:44:34;;;;;;;2.30;1.47;;;22.50;99.90;;;;;;20619774;28;20222;-68
2021/09/12 04:54:39;;;;;;;1.37;1.23;;;22.30;99.90;;;;;;20619042;28;20227;-67
2021/09/12 05:04:42;;;;;;;2.80;1.03;;;22.00;99.90;;;;;;20661533;28;20226;-67
2021/09/12 05:14:47;;;;;;;0.70;0.57;;;21.90;99.90;;;;;;20682200;28;20241;-68
2021/09/12 05:24:51;;;;;;;1.00;0.50;;;21.90;99.90;;;;;;20700550;28;20191;-68
2021/09/12 05:34:56;;;;;;;0.80;0.40;;;22.00;99.90;;;;;;20697266;28;20214;-68
2021/09/12 05:44:59;;;;;;;1.23;0.83;;;22.10;99.90;;;;;;20679829;28;20236;-69
2021/09/12 05:55:05;;;;;;;3.80;2.25;;;22.30;99.90;;;;;;20695543;28;20692;-68
2021/09/12 06:05:10;;;;;;;1.23;1.13;;;22.50;99.90;;;;;;20697572;28;20464;-68
2021/09/12 06:15:14;;;;;;;4.15;1.98;;;22.70;99.90;;;;;;20693600;28;20231;-67
2021/09/12 06:25:18;;;;;;;8.85;1.90;;;22.90;99.90;;;;;;20636822;28;20241;-68
2021/09/12 06:35:23;;;;;;;0.73;0.50;;;23.00;99.90;;;;;;20618014;28;20223;-68
2021/09/12 06:45:27;;;;;;;3.20;1.00;;;23.20;99.90;;;;;;20627378;28;20651;-68
2021/09/12 06:55:32;;;;;;;1.92;1.42;;;23.20;99.90;;;;;;20624326;28;20571;-68
2021/09/12 07:05:36;;;;;;;0.70;0.70;;;23.40;99.90;;;;;;20659454;28;21017;-68
2021/09/12 07:15:44;;;;;;;3.75;1.33;;;23.50;99.90;;;;;;20706271;28;20218;-68
2021/09/12 07:25:48;;;;;;;1.95;1.60;;;23.60;99.90;;;;;;20705580;28;20202;-68
2021/09/12 07:35:53;;;;;;;4.22;1.85;;;23.80;99.90;;;;;;20705623;28;20276;-68
2021/09/12 07:45:57;;;;;;;1.13;1.02;;;24.20;99.90;;;;;;20701495;28;20206;-68
2021/09/12 07:56:02;;;;;;;1.13;1.08;;;24.80;99.90;;;;;;20702838;28;20705;-68
2021/09/12 08:06:06;;;;;;;1.80;1.40;;;25.10;99.90;;;;;;20700781;28;20235;-68
2021/09/12 08:16:10;;;;;;;2.17;0.70;;;25.50;99.90;;;;;;20699513;28;20703;-67
2021/09/12 08:26:14;;;;;;;2.72;0.88;;;26.30;99.90;;;;;;20632519;28;20654;-68
2021/09/12 08:36:19;;;;;;;2.45;1.67;;;26.60;99.90;;;;;;20618629;28;20234;-67
2021/09/12 08:46:23;;;;;;;2.60;1.40;;;26.50;99.90;;;;;;20614947;28;20210;-67
2021/09/12 08:56:31;;;;;;;1.42;1.30;;;26.60;99.90;;;;;;20616897;28;20230;-67
2021/09/12 09:06:36;;;;;;;2.60;1.55;;;26.50;99.90;;;;;;20673763;28;20218;-68
2021/09/12 09:16:46;;;;;;;0.28;0.28;;;26.00;99.90;;;;;;20695481;28;20227;-68
2021/09/12 09:26:52;;;;;;;1.55;1.08;;;26.10;99.90;;;;;;20694688;28;20202;-67
2021/09/12 09:37:08;;;;;;;1.20;1.10;;;26.40;99.90;;;;;;20687083;28;20245;-67
2021/09/12 09:47:12;;;;;;;3.67;2.38;;;26.40;99.90;;;;;;20693980;28;20249;-68
2021/09/12 09:57:17;;;;;;;1.38;0.85;;;26.70;99.90;;;;;;20697401;28;20248;-68
2021/09/12 10:07:21;;;;;;;3.35;1.05;;;27.10;99.90;;;;;;20694915;28;20304;-69
2021/09/12 10:17:29;;;;;;;0.57;0.57;;;27.50;99.90;;;;;;20710184;28;20228;-67
2021/09/12 10:27:34;;;;;;;1.33;1.23;;;27.90;99.90;;;;;;20630961;28;20195;-68
2021/09/12 10:37:39;;;;;;;0.80;0.80;;;28.40;99.90;;;;;;20610865;28;20239;-68
2021/09/12 10:47:45;;;;;;;1.10;1.00;;;28.50;99.90;;;;;;20624780;28;20207;-69
2021/09/12 10:57:50;;;;;;;1.08;1.05;;;29.20;99.90;;;;;;20624430;28;20590;-68
2021/09/12 11:07:56;;;;;;;3.50;1.67;;;29.70;99.90;;;;;;20690510;28;20526;-68
2021/09/12 11:18:00;;;;;;;2.83;0.70;;;30.00;99.90;;;;;;20687439;28;20237;-67
2021/09/12 11:28:05;;;;;;;8.07;0.85;;;30.40;99.90;;;;;;20703514;28;20205;-68
2021/09/12 11:38:11;;;;;;;2.55;1.90;;;30.70;99.90;;;;;;20703143;28;20230;-68
2021/09/12 11:48:18;;;;;;;1.38;1.05;;;31.20;99.90;;;;;;20701506;28;20206;-69
2021/09/12 11:58:24;;;;;;;1.38;1.15;;;32.00;99.90;;;;;;20700207;28;20227;-67
2021/09/12 12:08:29;;;;;;;4.00;2.20;;;32.00;99.90;;;;;;20701400;28;20310;-70
2021/09/12 12:18:34;;;;;;;3.95;1.60;;;32.90;99.90;;;;;;20697388;28;20215;-67
2021/09/12 12:28:38;;;;;;;1.45;1.15;;;32.90;99.90;;;;;;20619385;28;20275;-68
2021/09/12 12:38:43;;;;;;;0.73;0.65;;;33.30;99.90;;;;;;20616663;28;20254;-67
2021/09/12 12:48:47;;;;;;;0.50;0.40;;;33.40;99.90;;;;;;20618604;28;20314;-68
2021/09/12 12:58:54;;;;;;;6.22;4.72;;;33.60;99.90;;;;;;20618453;28;20231;-68
2021/09/12 13:08:57;;;;;;;0.77;0.63;;;33.00;99.90;;;;;;20694260;28;20223;-67
2021/09/12 13:19:02;;;;;;;1.00;0.75;;;31.20;99.90;;;;;;20698116;28;20214;-68
2021/09/12 13:29:06;;;;;;;2.45;1.73;;;29.70;99.90;;;;;;20708908;28;20554;-67
2021/09/12 13:39:11;;;;;;;0.68;0.50;;;29.10;99.90;;;;;;20705633;28;20222;-68
2021/09/12 13:49:14;;;;;;;2.90;1.30;;;27.90;99.90;;;;;;20713599;28;20202;-68
2021/09/12 13:59:19;;;;;;;1.63;0.88;;;27.40;99.90;;;;;;20694501;28;21030;-68
2021/09/12 14:09:23;;;;;;;0.30;0.30;;;27.30;99.90;;;;;;20707822;28;20194;-67
2021/09/12 14:19:28;;;;;;;4.60;0.65;;;26.80;99.90;;;;;;20706392;28;20219;-67
2021/09/12 14:29:32;;;;;;;0.50;0.50;;;26.80;99.90;;;;;;20687596;28;20229;-66
2021/09/12 14:39:37;;;;;;;0.47;0.47;;;26.70;99.90;;;;;;20705830;28;20697;-66
2021/09/12 14:49:41;;;;;;;0.50;0.50;;;26.80;99.90;;;;;;20705625;28;20602;-65
2021/09/12 14:59:45;;;;;;;1.13;0.47;;;27.20;99.90;;;;;;20703235;28;20700;-66
2021/09/12 15:09:49;;;;;;;2.70;1.33;;;28.50;99.90;;;;;;20701321;28;20203;-67
2021/09/12 15:19:54;;;;;;;6.03;1.00;;;29.20;99.90;;;;;;20683244;28;20758;-68
2021/09/12 15:29:58;;;;;;;0.68;0.57;;;29.30;99.90;;;;;;20700910;28;20202;-67
2021/09/12 15:40:05;;;;;;;1.20;0.57;;;29.80;99.90;;;;;;20698869;28;20237;-67
2021/09/12 15:50:10;;;;;;;2.53;1.15;;;28.30;99.90;;;;;;20701482;28;20198;-66
2021/09/12 16:00:15;;;;;;;0.63;0.60;;;27.70;99.90;;;;;;20689944;28;20270;-67
2021/09/12 16:10:19;;;;;;;0.60;0.60;;;28.00;99.90;;;;;;20616437;28;20203;-68
2021/09/12 16:20:32;;;;;;;0.68;0.68;;;27.70;99.90;;;;;;20612765;28;20655;-66
2021/09/12 16:30:37;;;;;;;2.05;0.73;;;27.90;99.90;;;;;;20582207;28;20242;-67
2021/09/12 16:40:51;;;;;;;6.47;1.73;;;27.80;99.90;;;;;;21012024;27;20542;-67
2021/09/12 16:51:03;;;;;;;0.60;0.45;;;27.60;99.90;;;;;;21004116;28;20199;-66
2021/09/12 17:01:23;;;;;;;0.98;0.88;;;27.30;99.90;;;;;;21007392;28;20203;-67
2021/09/12 17:11:43;;;;;;;;;;;;;;;;;;;;;
2021/09/12 17:22:17;;;;;;;0.50;0.35;;;27.10;99.90;;;;;;21004929;28;20192;-66
2021/09/12 17:32:52;;;;;;;1.08;0.63;;;26.80;99.90;;;;;;21003322;28;20235;-66
2021/09/12 17:53:29;;;;;;;7.05;0.70;;;26.70;99.90;;;;;;20899681;22;20754;-67
2021/09/12 18:03:34;;;;;;;1.23;0.35;;;26.50;99.90;;;;;;20867033;28;20202;-67
2021/09/12 18:13:38;;;;;;;3.15;0.65;;;26.30;99.90;;;;;;20883702;28;20225;-67
2021/09/12 18:23:44;;;;;;;5.35;1.48;;;26.00;99.90;;;;;;20863572;28;20202;-67
2021/09/12 18:33:47;;;;;;;0.93;0.60;;;26.00;99.90;;;;;;20863793;28;20276;-69
2021/09/12 18:43:52;;;;;;;0.75;0.50;;;26.00;99.90;;;;;;20861898;28;20194;-68
2021/09/12 18:53:58;;;;;;;0.80;0.60;;;26.00;99.90;;;;;;20862747;28;21218;-68
2021/09/12 19:04:03;;;;;;;8.65;1.08;;;25.90;99.90;;;;;;20860665;28;20219;-67
2021/09/12 19:14:07;;;;;;;0.50;0.50;;;26.00;99.90;;;;;;20860849;28;21290;-67
2021/09/12 19:24:12;;;;;;;1.27;1.17;;;25.90;99.90;;;;;;20792349;28;20682;-67
2021/09/12 19:34:16;;;;;;;1.50;1.10;;;25.70;99.90;;;;;;20777778;28;20226;-67
2021/09/12 19:44:21;;;;;;;1.55;1.38;;;25.60;99.90;;;;;;20778143;28;20378;-66
2021/09/12 19:54:25;;;;;;;0.43;0.43;;;25.30;99.90;;;;;;20776048;28;20237;-68
2021/09/12 20:04:30;;;;;;;0.52;0.52;;;25.00;99.90;;;;;;20810979;28;20201;-67
2021/09/12 20:14:33;;;;;;;0.47;0.47;;;24.90;99.90;;;;;;20855196;28;20276;-68
2021/09/12 20:24:41;;;;;;;0.73;0.57;;;24.60;99.90;;;;;;20858226;28;21027;-70
2021/09/12 20:34:44;;;;;;;2.40;0.85;;;24.50;99.90;;;;;;20856101;28;20228;-70
2021/09/12 20:44:49;;;;;;;0.32;0.28;;;24.30;99.90;;;;;;20858375;28;20912;-70
2021/09/12 20:54:53;;;;;;;0.35;0.25;;;24.10;99.90;;;;;;20855866;28;20237;-69
2021/09/12 21:04:58;;;;;;;1.10;0.90;;;24.00;99.90;;;;;;20857838;28;21012;-71
2021/09/12 21:15:01;;;;;;;0.52;0.47;;;23.90;99.90;;;;;;20855984;28;20229;-69
2021/09/12 21:25:07;;;;;;;15.10;1.40;;;23.90;99.90;;;;;;20811395;28;20328;-69
2021/09/12 21:35:11;;;;;;;0.77;0.60;;;23.80;99.90;;;;;;20789841;28;20237;-69
2021/09/12 21:45:18;;;;;;;0.88;0.80;;;23.60;99.90;;;;;;20790268;28;20660;-70
2021/09/12 21:55:22;;;;;;;0.85;0.35;;;23.60;99.90;;;;;;20812459;28;20229;-68
2021/09/12 22:05:28;;;;;;;6.22;1.75;;;23.50;99.90;;;;;;20864162;28;20855;-70
2021/09/12 22:15:34;;;;;;;1.55;0.85;;;23.50;99.90;;;;;;20870728;28;20220;-69
2021/09/12 22:25:39;;;;;;;0.93;0.40;;;23.40;99.90;;;;;;20867863;28;20205;-71
2021/09/12 22:35:42;;;;;;;0.68;0.60;;;23.40;99.90;;;;;;20869239;28;20225;-69
2021/09/12 22:45:47;;;;;;;1.05;0.80;;;23.40;99.90;;;;;;20866397;28;20202;-69
2021/09/12 22:55:51;;;;;;;2.47;0.47;;;23.30;99.90;;;;;;20867884;28;20233;-69
2021/09/12 23:05:56;;;;;;;1.13;0.60;;;23.30;99.90;;;;;;20867014;28;20213;-69
2021/09/12 23:15:59;;;;;;;1.00;0.45;;;23.20;99.90;;;;;;20865390;28;20244;-68
2021/09/12 23:26:04;;;;;;;0.85;0.63;;;23.20;99.90;;;;;;20864849;28;20194;-68
2021/09/12 23:36:08;;;;;;;0.55;0.55;;;23.20;99.90;;;;;;20867190;28;20229;-67
2021/09/12 23:46:14;;;;;;;0.20;0.20;;;23.30;99.90;;;;;;20864106;28;20682;-68
2021/09/12 23:56:18;;;;;;;0.43;0.20;;;23.10;99.90;;;;;;20863734;28;20332;-69
